Time;durP1;ratioP1;P1;durP2;ratioP2;P2;SDS_P1;SDS_P2;PMS_P1;PMS_P2;Temp;Humidity;BMP_temperature;BMP_pressure;BME280_temperature;BME280_humidity;BME280_pressure;Samples;Min_cycle;Max_cycle;Signal;HPM_P1;HPM_P2
2023/01/15 00:01:43;;;;;;;2.10;1.10;;;9.30;99.90;;;;;;5032890;28;20194;-69
2023/01/15 00:04:11;;;;;;;1.40;0.80;;;9.30;99.90;;;;;;5022585;28;20251;-69
2023/01/15 00:06:40;;;;;;;0.70;0.70;;;9.20;99.90;;;;;;5035461;28;20599;-68
2023/01/15 00:09:07;;;;;;;1.23;0.83;;;9.20;99.90;;;;;;5018508;28;21037;-70
2023/01/15 00:11:33;;;;;;;0.80;0.80;;;9.30;99.90;;;;;;5019519;28;20437;-68
2023/01/15 00:13:59;;;;;;;1.23;0.93;;;9.30;99.90;;;;;;5025874;28;20517;-67
2023/01/15 00:16:26;;;;;;;2.13;1.23;;;9.30;99.90;;;;;;5030985;28;20210;-67
2023/01/15 00:18:57;;;;;;;1.43;0.70;;;9.30;99.90;;;;;;5025241;28;20871;-68
2023/01/15 00:21:24;;;;;;;1.33;1.13;;;9.40;99.90;;;;;;5024337;28;20436;-69
2023/01/15 00:29:20;;;;;;;1.40;0.90;;;9.40;99.90;;;;;;5024026;28;20463;-67
2023/01/15 00:31:58;;;;;;;1.20;0.73;;;9.40;99.90;;;;;;5028735;28;20957;-68
2023/01/15 00:34:24;;;;;;;0.90;0.70;;;9.40;99.90;;;;;;5023818;28;20560;-69
2023/01/15 00:36:50;;;;;;;2.00;0.97;;;9.50;99.90;;;;;;5021145;28;20457;-67
2023/01/15 00:39:16;;;;;;;0.70;0.70;;;9.50;99.90;;;;;;5030886;28;20445;-69
2023/01/15 00:41:41;;;;;;;1.20;1.10;;;9.40;99.90;;;;;;5009111;28;20608;-69
2023/01/15 00:44:07;;;;;;;1.77;1.20;;;9.50;99.90;;;;;;5029625;28;20236;-69
2023/01/15 00:46:32;;;;;;;1.20;0.90;;;9.50;99.90;;;;;;5028129;28;20218;-69
2023/01/15 00:48:58;;;;;;;1.87;1.53;;;9.50;99.90;;;;;;5030192;28;20261;-69
2023/01/15 00:51:23;;;;;;;0.80;0.73;;;9.50;99.90;;;;;;5029215;28;20258;-68
2023/01/15 00:53:49;;;;;;;1.00;0.70;;;9.50;99.90;;;;;;5028723;28;20292;-69
2023/01/15 00:56:14;;;;;;;1.00;0.77;;;9.50;99.90;;;;;;5016900;28;20213;-69
2023/01/15 00:58:40;;;;;;;0.90;0.80;;;9.50;99.90;;;;;;5032420;28;20184;-68
2023/01/15 01:01:05;;;;;;;0.60;0.60;;;9.60;99.90;;;;;;5023255;28;20186;-68
2023/01/15 01:03:31;;;;;;;0.83;0.73;;;9.50;99.90;;;;;;5025723;28;20536;-68
2023/01/15 01:06:04;;;;;;;0.90;0.80;;;9.50;99.90;;;;;;5028642;28;20210;-68
2023/01/15 01:08:30;;;;;;;1.50;0.70;;;9.50;99.90;;;;;;5019193;28;20203;-68
2023/01/15 01:11:11;;;;;;;0.70;0.70;;;9.50;99.90;;;;;;5020928;28;20438;-68
2023/01/15 01:13:37;;;;;;;0.87;0.73;;;9.50;99.90;;;;;;5028927;28;20437;-68
2023/01/15 01:16:19;;;;;;;0.77;0.70;;;9.50;99.90;;;;;;5028726;28;20491;-69
2023/01/15 01:18:45;;;;;;;1.60;0.70;;;9.50;99.90;;;;;;5023994;28;20444;-69
2023/01/15 01:21:10;;;;;;;0.97;0.70;;;9.50;99.90;;;;;;5025882;28;20436;-69
2023/01/15 01:23:36;;;;;;;1.30;0.80;;;9.50;99.90;;;;;;5035467;28;20600;-68
2023/01/15 01:26:01;;;;;;;0.80;0.70;;;9.50;99.90;;;;;;5027140;28;20221;-68
2023/01/15 01:28:27;;;;;;;0.83;0.60;;;9.40;99.90;;;;;;5027204;28;20202;-68
2023/01/15 01:30:52;;;;;;;0.70;0.60;;;9.50;99.90;;;;;;5028756;28;20224;-68
2023/01/15 01:33:17;;;;;;;0.60;0.53;;;9.50;99.90;;;;;;5035594;28;20533;-69
2023/01/15 01:35:50;;;;;;;0.90;0.67;;;9.50;99.90;;;;;;5030368;28;20248;-68
2023/01/15 01:38:15;;;;;;;0.60;0.60;;;9.60;99.90;;;;;;5027636;28;20178;-68
2023/01/15 01:40:41;;;;;;;0.97;0.90;;;9.60;99.90;;;;;;5023999;28;20811;-68
2023/01/15 01:43:21;;;;;;;0.77;0.60;;;9.60;99.90;;;;;;5037362;28;20182;-68
2023/01/15 01:45:47;;;;;;;0.77;0.77;;;9.60;99.90;;;;;;5026517;28;20461;-69
2023/01/15 01:48:16;;;;;;;1.27;0.80;;;9.60;99.90;;;;;;5044952;28;20512;-69
2023/01/15 01:50:42;;;;;;;1.83;0.93;;;9.60;99.90;;;;;;5023784;28;20266;-68
2023/01/15 01:53:16;;;;;;;0.80;0.60;;;9.70;99.90;;;;;;5040967;28;20819;-68
2023/01/15 01:55:42;;;;;;;0.90;0.70;;;9.70;99.90;;;;;;5027221;28;20663;-68
2023/01/15 01:58:09;;;;;;;0.80;0.80;;;9.80;99.90;;;;;;5030668;28;20552;-68
2023/01/15 02:00:37;;;;;;;1.17;0.70;;;9.80;99.90;;;;;;5029087;28;20186;-69
2023/01/15 02:03:06;;;;;;;0.70;0.67;;;9.80;99.90;;;;;;5040552;28;20467;-69
2023/01/15 02:05:36;;;;;;;1.60;0.70;;;9.80;99.90;;;;;;5028205;28;20950;-68
2023/01/15 02:08:01;;;;;;;0.87;0.60;;;9.80;99.90;;;;;;5034096;28;20429;-68
2023/01/15 02:10:27;;;;;;;0.83;0.50;;;9.80;99.90;;;;;;5019595;28;20952;-68
2023/01/15 02:13:02;;;;;;;0.60;0.60;;;9.80;99.90;;;;;;5032124;28;20228;-68
2023/01/15 02:15:34;;;;;;;3.70;0.97;;;9.90;99.90;;;;;;5034026;28;20296;-69
2023/01/15 02:18:16;;;;;;;0.80;0.63;;;10.00;99.90;;;;;;5040424;28;20808;-69
2023/01/15 02:20:53;;;;;;;0.70;0.63;;;10.00;99.90;;;;;;5026707;28;20437;-68
2023/01/15 02:23:52;;;;;;;1.33;0.60;;;10.00;99.90;;;;;;5027049;28;20453;-68
2023/01/15 02:26:47;;;;;;;0.60;0.60;;;10.00;99.90;;;;;;5031253;28;20460;-68
2023/01/15 02:29:18;;;;;;;0.70;0.60;;;10.10;99.90;;;;;;5039892;28;20985;-68
2023/01/15 02:31:49;;;;;;;0.50;0.50;;;10.30;99.90;;;;;;5026116;28;20467;-68
2023/01/15 02:34:25;;;;;;;0.67;0.53;;;10.10;99.90;;;;;;5030409;28;20436;-69
2023/01/15 02:37:00;;;;;;;0.70;0.60;;;10.20;99.90;;;;;;5028775;28;20476;-68
2023/01/15 02:39:28;;;;;;;0.70;0.70;;;10.20;99.90;;;;;;5032525;28;20436;-67
2023/01/15 02:41:57;;;;;;;1.57;0.57;;;10.20;99.90;;;;;;5024325;28;20471;-68
2023/01/15 02:44:25;;;;;;;0.60;0.50;;;10.10;99.90;;;;;;5026998;28;20462;-68
2023/01/15 02:46:52;;;;;;;1.47;0.60;;;10.20;99.90;;;;;;5034862;28;20443;-68
2023/01/15 02:49:20;;;;;;;4.63;0.70;;;10.20;99.90;;;;;;5029486;28;20456;-68
2023/01/15 02:51:56;;;;;;;0.67;0.67;;;10.20;99.90;;;;;;5026168;28;20784;-68
2023/01/15 02:54:25;;;;;;;0.77;0.73;;;10.20;99.90;;;;;;5014884;28;20457;-67
2023/01/15 02:56:51;;;;;;;0.67;0.60;;;10.20;99.90;;;;;;5003880;28;20440;-68
2023/01/15 02:59:26;;;;;;;0.90;0.70;;;10.20;99.90;;;;;;5023945;28;20838;-68
2023/01/15 03:02:00;;;;;;;0.60;0.60;;;10.20;99.90;;;;;;5029726;28;21313;-68
2023/01/15 03:04:35;;;;;;;1.07;0.80;;;10.20;99.90;;;;;;5034913;28;20594;-67
2023/01/15 03:07:22;;;;;;;2.60;2.07;;;10.30;99.90;;;;;;5043518;28;20538;-68
2023/01/15 03:09:49;;;;;;;0.70;0.70;;;10.20;99.90;;;;;;5019289;28;20457;-68
2023/01/15 03:12:25;;;;;;;0.50;0.50;;;10.20;99.90;;;;;;5025926;28;20439;-67
2023/01/15 03:15:10;;;;;;;0.50;0.40;;;10.20;99.90;;;;;;5022276;28;20477;-68
2023/01/15 03:17:46;;;;;;;0.80;0.50;;;10.30;99.90;;;;;;5035186;28;20482;-68
2023/01/15 03:20:19;;;;;;;1.60;0.60;;;10.30;99.90;;;;;;5025957;28;20436;-67
2023/01/15 03:22:48;;;;;;;1.30;0.80;;;10.30;99.90;;;;;;5031294;28;20781;-67
2023/01/15 03:25:24;;;;;;;1.27;0.60;;;10.40;99.90;;;;;;5019202;28;20461;-68
2023/01/15 03:27:54;;;;;;;0.63;0.43;;;10.40;99.90;;;;;;5041484;28;20447;-67
2023/01/15 03:30:21;;;;;;;0.60;0.50;;;10.50;99.90;;;;;;5023232;28;20491;-68
2023/01/15 03:32:47;;;;;;;0.53;0.47;;;10.60;99.90;;;;;;5027414;28;20434;-68
2023/01/15 03:35:37;;;;;;;0.50;0.50;;;10.80;99.90;;;;;;5026213;28;20486;-68
2023/01/15 03:38:03;;;;;;;1.43;0.50;;;11.00;99.90;;;;;;5031440;28;20424;-67
2023/01/15 03:40:30;;;;;;;0.60;0.50;;;11.10;99.90;;;;;;5028888;28;20603;-67
2023/01/15 03:45:51;;;;;;;0.50;0.50;;;11.00;99.90;;;;;;5036346;28;20490;-67
2023/01/15 03:48:38;;;;;;;0.50;0.50;;;10.90;99.90;;;;;;5024498;28;20441;-67
2023/01/15 03:51:11;;;;;;;1.00;0.80;;;10.90;99.90;;;;;;5026550;28;20445;-68
2023/01/15 03:53:44;;;;;;;0.40;0.40;;;11.00;99.90;;;;;;5028200;28;20776;-67
2023/01/15 03:56:22;;;;;;;0.57;0.50;;;10.90;99.90;;;;;;5031210;28;20956;-68
2023/01/15 03:58:52;;;;;;;2.93;0.50;;;11.00;99.90;;;;;;5030870;28;20523;-68
2023/01/15 04:01:22;;;;;;;0.40;0.40;;;11.10;99.90;;;;;;5036537;28;20507;-68
2023/01/15 04:03:49;;;;;;;0.60;0.50;;;11.10;99.90;;;;;;5033819;28;20433;-67
2023/01/15 04:06:16;;;;;;;0.53;0.50;;;11.20;99.90;;;;;;5033636;28;20515;-68
2023/01/15 04:08:44;;;;;;;1.57;0.57;;;11.20;99.90;;;;;;5031005;28;20987;-68
2023/01/15 04:11:10;;;;;;;0.50;0.50;;;11.30;99.90;;;;;;5024627;28;20453;-68
2023/01/15 04:13:35;;;;;;;1.33;0.60;;;11.30;99.90;;;;;;5034965;28;20437;-67
2023/01/15 04:16:01;;;;;;;0.60;0.50;;;11.40;99.90;;;;;;5026438;28;20294;-68
2023/01/15 04:18:27;;;;;;;0.50;0.40;;;11.30;99.90;;;;;;5023107;28;20178;-68
2023/01/15 04:20:55;;;;;;;0.67;0.67;;;11.30;99.90;;;;;;5027528;28;20569;-68
2023/01/15 04:23:21;;;;;;;0.50;0.50;;;11.30;99.90;;;;;;5036615;28;20186;-68
2023/01/15 04:25:46;;;;;;;0.80;0.50;;;11.30;99.90;;;;;;5027300;28;20511;-67
2023/01/15 04:28:12;;;;;;;0.60;0.50;;;11.30;99.90;;;;;;5026289;28;20486;-67
2023/01/15 04:30:38;;;;;;;0.50;0.50;;;11.30;99.90;;;;;;5031902;28;20178;-67
2023/01/15 04:33:04;;;;;;;0.70;0.40;;;11.30;99.90;;;;;;5020997;28;20190;-68
2023/01/15 04:35:30;;;;;;;0.40;0.40;;;11.30;99.90;;;;;;5022244;28;20210;-68
2023/01/15 04:37:57;;;;;;;0.60;0.40;;;11.20;99.90;;;;;;5033769;28;20432;-68
2023/01/15 04:45:54;;;;;;;0.73;0.73;;;11.20;99.90;;;;;;5026242;28;20560;-67
2023/01/15 04:48:20;;;;;;;0.60;0.40;;;11.20;99.90;;;;;;5036533;28;20524;-67
2023/01/15 04:50:45;;;;;;;0.80;0.80;;;11.20;99.90;;;;;;5026633;28;20186;-67
2023/01/15 04:53:11;;;;;;;0.70;0.70;;;11.30;99.90;;;;;;5030333;28;20182;-67
2023/01/15 04:55:36;;;;;;;0.60;0.60;;;11.30;99.90;;;;;;5043414;28;20197;-67
2023/01/15 04:58:02;;;;;;;1.13;1.03;;;11.40;99.90;;;;;;5040550;28;20178;-68
2023/01/15 05:00:27;;;;;;;0.40;0.40;;;11.10;99.90;;;;;;5042474;28;20186;-68
2023/01/15 05:02:53;;;;;;;0.60;0.60;;;11.10;99.90;;;;;;5040759;28;20610;-67
2023/01/15 05:05:18;;;;;;;1.50;0.70;;;11.10;99.90;;;;;;5039785;28;20590;-68
2023/01/15 05:07:44;;;;;;;0.50;0.50;;;11.10;99.90;;;;;;5035234;28;20554;-67
2023/01/15 05:10:10;;;;;;;1.53;0.70;;;11.10;99.90;;;;;;5033452;28;20216;-67
2023/01/15 05:12:35;;;;;;;0.57;0.53;;;11.20;99.90;;;;;;5029645;28;20179;-67
2023/01/15 05:15:01;;;;;;;0.50;0.50;;;11.20;99.90;;;;;;5035177;28;20209;-67
2023/01/15 05:17:26;;;;;;;0.60;0.50;;;11.30;99.90;;;;;;5040600;28;20180;-67
2023/01/15 05:19:52;;;;;;;0.50;0.50;;;11.30;99.90;;;;;;5039010;28;20205;-67
2023/01/15 05:22:17;;;;;;;0.80;0.70;;;11.30;99.90;;;;;;5014708;28;20268;-67
2023/01/15 05:24:43;;;;;;;0.83;0.60;;;11.40;99.90;;;;;;5031024;28;20230;-68
2023/01/15 05:27:08;;;;;;;0.50;0.50;;;11.30;99.90;;;;;;5027212;28;20556;-68
2023/01/15 05:29:35;;;;;;;0.80;0.60;;;11.20;99.90;;;;;;5026448;28;20561;-69
2023/01/15 05:32:00;;;;;;;1.43;0.50;;;11.10;99.90;;;;;;5021233;28;20182;-71
2023/01/15 05:34:26;;;;;;;2.63;0.50;;;10.80;99.90;;;;;;5025958;28;21007;-70
2023/01/15 05:36:51;;;;;;;0.60;0.50;;;10.20;99.90;;;;;;5027333;28;20643;-71
2023/01/15 05:39:17;;;;;;;1.23;0.60;;;9.80;99.90;;;;;;5024044;28;20186;-70
2023/01/15 05:41:48;;;;;;;0.73;0.40;;;9.50;99.90;;;;;;5020248;28;20194;-70
2023/01/15 05:44:20;;;;;;;0.50;0.40;;;9.20;99.90;;;;;;5024901;28;20539;-70
2023/01/15 05:46:46;;;;;;;0.47;0.40;;;8.90;99.90;;;;;;5029829;28;20441;-70
2023/01/15 05:49:16;;;;;;;0.50;0.40;;;8.80;99.90;;;;;;5030746;28;20838;-70
2023/01/15 05:51:42;;;;;;;0.40;0.40;;;8.60;99.90;;;;;;5038353;28;20429;-70
2023/01/15 05:54:11;;;;;;;0.50;0.50;;;8.50;99.90;;;;;;5031181;28;20471;-71
2023/01/15 05:56:37;;;;;;;0.40;0.40;;;8.30;99.90;;;;;;5042512;28;20432;-70
2023/01/15 05:59:04;;;;;;;0.80;0.40;;;8.30;99.90;;;;;;5039488;28;20596;-70
2023/01/15 06:01:30;;;;;;;0.50;0.50;;;8.20;99.90;;;;;;5028119;28;20441;-70
2023/01/15 06:04:01;;;;;;;0.40;0.40;;;8.10;99.90;;;;;;5023478;28;20449;-69
2023/01/15 06:06:27;;;;;;;0.40;0.40;;;8.00;99.90;;;;;;5033868;28;20198;-70
2023/01/15 06:08:53;;;;;;;0.40;0.40;;;8.00;99.90;;;;;;5038543;28;20818;-70
2023/01/15 06:11:18;;;;;;;0.40;0.40;;;7.90;99.90;;;;;;5030652;28;20432;-70
2023/01/15 06:13:44;;;;;;;0.50;0.40;;;7.90;99.90;;;;;;5023247;28;20178;-70
2023/01/15 06:16:10;;;;;;;0.40;0.40;;;7.80;99.90;;;;;;5038618;28;20205;-70
2023/01/15 06:18:36;;;;;;;0.50;0.50;;;7.70;99.90;;;;;;5029294;28;20189;-69
2023/01/15 06:21:04;;;;;;;0.50;0.40;;;7.80;99.90;;;;;;5039945;28;20439;-69
2023/01/15 06:23:31;;;;;;;0.40;0.40;;;7.80;99.90;;;;;;5025583;28;20999;-69
2023/01/15 06:26:00;;;;;;;0.73;0.40;;;7.70;99.90;;;;;;5029307;28;20483;-70
2023/01/15 06:28:26;;;;;;;0.40;0.40;;;7.60;99.90;;;;;;5038132;28;20436;-69
2023/01/15 06:30:52;;;;;;;0.50;0.40;;;7.60;99.90;;;;;;5042560;28;20463;-70
2023/01/15 06:33:17;;;;;;;0.40;0.40;;;7.60;99.90;;;;;;5030221;28;20984;-70
2023/01/15 06:35:43;;;;;;;0.50;0.40;;;7.60;99.90;;;;;;5029371;28;20198;-70
2023/01/15 06:38:08;;;;;;;0.70;0.40;;;7.60;99.90;;;;;;5031766;28;20190;-70
2023/01/15 06:40:35;;;;;;;0.50;0.40;;;7.50;99.90;;;;;;5031788;28;20170;-69
2023/01/15 06:48:29;;;;;;;0.50;0.40;;;7.60;99.90;;;;;;5034796;28;20511;-69
2023/01/15 06:50:54;;;;;;;0.50;0.47;;;7.40;99.90;;;;;;5038015;28;20873;-69
2023/01/15 06:53:20;;;;;;;0.40;0.40;;;7.40;99.90;;;;;;5042191;28;20177;-69
2023/01/15 06:55:46;;;;;;;0.60;0.50;;;7.30;99.90;;;;;;5040516;28;20225;-69
2023/01/15 06:58:11;;;;;;;1.43;0.40;;;7.30;99.90;;;;;;5038853;28;21016;-69
2023/01/15 07:00:37;;;;;;;0.60;0.50;;;7.20;99.90;;;;;;5040346;28;20224;-71
2023/01/15 07:03:03;;;;;;;0.50;0.40;;;7.20;99.90;;;;;;5043685;28;20209;-69
2023/01/15 07:05:29;;;;;;;0.60;0.60;;;7.20;99.90;;;;;;5023393;28;20331;-72
2023/01/15 07:07:57;;;;;;;0.50;0.50;;;7.20;99.90;;;;;;5037480;28;20521;-72
2023/01/15 07:10:22;;;;;;;0.50;0.47;;;7.10;99.90;;;;;;5044447;28;20565;-69
2023/01/15 07:12:48;;;;;;;0.50;0.43;;;7.10;99.90;;;;;;5037253;28;20433;-71
2023/01/15 07:15:13;;;;;;;0.40;0.40;;;7.10;99.90;;;;;;5035121;28;20292;-71
2023/01/15 07:17:40;;;;;;;0.60;0.60;;;7.00;99.90;;;;;;5037693;28;20571;-71
2023/01/15 07:20:06;;;;;;;0.53;0.50;;;7.00;99.90;;;;;;5042771;28;20521;-70
2023/01/15 07:22:32;;;;;;;0.40;0.40;;;6.90;99.90;;;;;;5044991;28;20185;-69
2023/01/15 07:24:58;;;;;;;0.77;0.67;;;6.70;99.90;;;;;;5027913;28;20462;-69
2023/01/15 07:27:23;;;;;;;0.70;0.60;;;6.70;99.90;;;;;;5036957;28;20205;-70
2023/01/15 07:29:50;;;;;;;0.60;0.40;;;6.60;99.90;;;;;;5036557;28;20205;-70
2023/01/15 07:32:16;;;;;;;0.50;0.40;;;6.60;99.90;;;;;;5029794;28;20183;-70
2023/01/15 07:34:42;;;;;;;1.13;0.93;;;6.60;99.90;;;;;;5033321;28;21021;-69
2023/01/15 07:37:07;;;;;;;0.70;0.57;;;6.50;99.90;;;;;;5043377;28;20581;-69
2023/01/15 07:39:33;;;;;;;0.60;0.57;;;6.50;99.90;;;;;;5043952;28;20264;-69
2023/01/15 07:50:20;;;;;;;0.67;0.47;;;6.40;99.90;;;;;;5044380;28;20967;-70
2023/01/15 07:52:45;;;;;;;0.50;0.50;;;6.40;99.90;;;;;;5033025;28;20444;-69
2023/01/15 07:55:12;;;;;;;0.40;0.40;;;6.30;99.90;;;;;;5039140;28;20464;-70
2023/01/15 07:57:38;;;;;;;0.73;0.63;;;6.40;99.90;;;;;;5036844;28;20178;-70
2023/01/15 08:00:06;;;;;;;0.63;0.47;;;6.40;99.90;;;;;;5027680;28;20454;-70
2023/01/15 08:02:32;;;;;;;1.90;0.50;;;6.40;99.90;;;;;;5034808;28;20937;-70
2023/01/15 08:04:57;;;;;;;0.80;0.50;;;6.40;99.90;;;;;;5038554;28;20463;-70
2023/01/15 08:07:23;;;;;;;0.60;0.50;;;6.40;99.90;;;;;;5033224;28;20792;-69
2023/01/15 08:09:49;;;;;;;0.80;0.50;;;6.30;99.90;;;;;;5030621;28;20666;-69
2023/01/15 08:15:13;;;;;;;0.50;0.40;;;6.30;99.90;;;;;;5030690;28;20670;-70
2023/01/15 08:17:45;;;;;;;1.03;0.40;;;6.40;99.90;;;;;;5019475;28;20433;-70
2023/01/15 08:20:14;;;;;;;0.50;0.40;;;6.50;99.90;;;;;;5033063;28;20518;-70
2023/01/15 08:22:40;;;;;;;0.50;0.40;;;6.40;99.90;;;;;;5037739;28;20464;-70
2023/01/15 08:25:07;;;;;;;1.43;0.50;;;6.40;99.90;;;;;;5035696;28;20551;-70
2023/01/15 08:27:32;;;;;;;0.50;0.40;;;6.40;99.90;;;;;;5021365;28;20620;-70
2023/01/15 08:29:58;;;;;;;0.40;0.40;;;6.30;99.90;;;;;;5032864;28;20564;-70
2023/01/15 08:32:23;;;;;;;0.97;0.53;;;6.30;99.90;;;;;;5037830;28;20174;-70
2023/01/15 08:34:49;;;;;;;0.97;0.77;;;6.30;99.90;;;;;;5020854;28;20544;-71
2023/01/15 08:37:14;;;;;;;0.50;0.50;;;6.30;99.90;;;;;;5031002;28;20862;-70
2023/01/15 08:39:40;;;;;;;0.50;0.40;;;6.30;99.90;;;;;;5036330;28;20169;-70
2023/01/15 08:42:07;;;;;;;0.60;0.50;;;6.30;99.90;;;;;;5027392;28;20707;-70
2023/01/15 08:44:32;;;;;;;0.50;0.40;;;6.30;99.90;;;;;;5040519;28;20247;-70
2023/01/15 08:46:58;;;;;;;1.17;0.50;;;6.20;99.90;;;;;;5030269;28;20442;-70
2023/01/15 08:49:23;;;;;;;0.70;0.40;;;6.30;99.90;;;;;;5042547;28;20193;-70
2023/01/15 08:51:50;;;;;;;2.60;0.40;;;6.20;99.90;;;;;;5030324;28;20174;-70
2023/01/15 08:54:18;;;;;;;0.40;0.40;;;6.20;99.90;;;;;;5026199;28;20699;-69
2023/01/15 08:56:45;;;;;;;0.63;0.60;;;6.20;99.90;;;;;;5025443;28;20434;-70
2023/01/15 08:59:10;;;;;;;0.50;0.40;;;6.30;99.90;;;;;;5029830;28;20440;-71
2023/01/15 09:01:36;;;;;;;1.67;0.90;;;6.30;99.90;;;;;;5034879;28;22183;-69
2023/01/15 09:04:02;;;;;;;0.70;0.60;;;6.30;99.90;;;;;;5020135;28;20277;-70
2023/01/15 09:06:27;;;;;;;0.63;0.50;;;6.30;99.90;;;;;;5023669;28;20189;-70
2023/01/15 09:08:53;;;;;;;1.17;1.07;;;6.30;99.90;;;;;;5030665;28;20256;-70
2023/01/15 09:11:18;;;;;;;0.60;0.60;;;6.30;99.90;;;;;;5042891;28;20173;-70
2023/01/15 09:13:46;;;;;;;1.97;1.63;;;6.30;99.90;;;;;;5040248;28;20257;-70
2023/01/15 09:16:11;;;;;;;2.03;1.50;;;6.40;99.90;;;;;;5032631;28;20210;-70
2023/01/15 09:18:38;;;;;;;1.07;0.80;;;6.40;99.90;;;;;;5034483;28;20812;-70
2023/01/15 09:21:05;;;;;;;1.20;1.10;;;6.40;99.90;;;;;;5041885;28;20316;-69
2023/01/15 09:23:31;;;;;;;0.70;0.60;;;6.40;99.90;;;;;;5022157;28;20432;-70
2023/01/15 09:25:59;;;;;;;1.00;0.90;;;6.40;99.90;;;;;;5026356;28;20475;-70
2023/01/15 09:28:25;;;;;;;1.43;1.20;;;6.40;99.90;;;;;;5025778;28;20661;-70
2023/01/15 09:30:50;;;;;;;2.47;1.50;;;6.40;99.90;;;;;;5029457;28;20441;-70
2023/01/15 09:33:16;;;;;;;1.53;1.10;;;6.40;99.90;;;;;;5025494;28;20279;-70
2023/01/15 09:35:42;;;;;;;1.13;0.80;;;6.40;99.90;;;;;;5026330;28;20198;-69
2023/01/15 09:38:16;;;;;;;1.10;0.90;;;6.50;99.90;;;;;;5028773;28;20265;-69
2023/01/15 09:41:01;;;;;;;1.30;1.20;;;6.50;99.90;;;;;;5020291;28;20943;-69
2023/01/15 09:43:48;;;;;;;3.50;0.83;;;6.60;99.90;;;;;;5025527;28;20441;-69
2023/01/15 09:46:24;;;;;;;0.97;0.80;;;6.60;99.90;;;;;;5028830;28;20562;-70
2023/01/15 09:48:58;;;;;;;2.87;1.87;;;6.70;99.90;;;;;;5035080;28;20475;-69
2023/01/15 09:51:51;;;;;;;0.60;0.60;;;6.70;99.90;;;;;;5039775;28;20465;-69
2023/01/15 09:54:37;;;;;;;1.10;1.00;;;6.70;99.90;;;;;;5023450;28;20513;-70
2023/01/15 09:57:06;;;;;;;0.90;0.70;;;6.80;99.90;;;;;;5017801;28;20503;-70
2023/01/15 09:59:35;;;;;;;1.30;0.87;;;6.60;99.90;;;;;;5024331;28;20449;-70
2023/01/15 10:02:11;;;;;;;1.03;0.70;;;6.70;99.90;;;;;;5027435;28;20437;-69
2023/01/15 10:04:42;;;;;;;0.83;0.50;;;6.70;99.90;;;;;;5026461;28;20583;-69
2023/01/15 10:07:13;;;;;;;1.33;1.10;;;6.70;99.90;;;;;;5030575;28;20445;-69
2023/01/15 10:09:39;;;;;;;3.40;3.07;;;6.70;99.90;;;;;;5037663;28;20464;-69
2023/01/15 10:12:43;;;;;;;1.03;0.60;;;6.60;99.90;;;;;;5046536;28;20444;-69
2023/01/15 10:15:23;;;;;;;0.67;0.53;;;6.40;99.90;;;;;;5027403;28;20473;-69
2023/01/15 10:17:57;;;;;;;0.40;0.40;;;6.40;99.90;;;;;;5045133;28;20448;-70
2023/01/15 10:20:38;;;;;;;1.20;1.00;;;6.40;99.90;;;;;;5022877;28;20435;-69
2023/01/15 10:23:12;;;;;;;0.83;0.70;;;6.50;99.90;;;;;;5035698;28;20444;-69
2023/01/15 10:25:47;;;;;;;0.83;0.70;;;6.60;99.90;;;;;;5034549;28;20464;-69
2023/01/15 10:28:23;;;;;;;3.77;1.60;;;6.70;99.90;;;;;;5035774;28;20439;-69
2023/01/15 10:30:53;;;;;;;1.40;1.10;;;6.70;99.90;;;;;;5035826;28;20517;-69
2023/01/15 10:33:24;;;;;;;1.20;0.70;;;6.80;99.90;;;;;;5029970;28;20518;-69
2023/01/15 10:36:00;;;;;;;0.90;0.80;;;6.80;99.90;;;;;;5034247;28;21033;-69
2023/01/15 10:38:38;;;;;;;0.80;0.80;;;6.80;99.90;;;;;;5018330;28;20467;-69
2023/01/15 10:41:32;;;;;;;0.90;0.60;;;6.80;99.90;;;;;;5042832;28;20508;-69
2023/01/15 10:44:08;;;;;;;0.80;0.80;;;6.70;99.90;;;;;;5032265;28;20944;-69
2023/01/15 10:46:37;;;;;;;0.80;0.70;;;6.70;99.90;;;;;;5028707;28;20424;-69
2023/01/15 10:49:16;;;;;;;1.83;1.20;;;6.70;99.90;;;;;;5027302;28;20508;-69
2023/01/15 10:51:46;;;;;;;1.13;1.00;;;6.60;99.90;;;;;;5044847;28;20438;-69
2023/01/15 10:54:21;;;;;;;0.77;0.77;;;6.60;99.90;;;;;;5040906;28;20941;-68
2023/01/15 10:56:50;;;;;;;0.60;0.60;;;6.50;99.90;;;;;;5022327;28;20573;-69
2023/01/15 10:59:21;;;;;;;0.93;0.70;;;6.50;99.90;;;;;;5022103;28;21013;-67
2023/01/15 11:01:53;;;;;;;1.50;1.20;;;6.50;99.90;;;;;;5034620;28;20855;-67
2023/01/15 11:04:19;;;;;;;0.67;0.67;;;6.40;99.90;;;;;;5029485;28;20887;-68
2023/01/15 11:06:45;;;;;;;0.90;0.60;;;6.20;99.90;;;;;;5027057;28;20532;-67
2023/01/15 11:09:22;;;;;;;0.80;0.80;;;6.10;99.90;;;;;;5028284;28;20264;-67
2023/01/15 11:19:42;;;;;;;0.40;0.40;;;5.50;99.90;;;;;;5042782;28;20436;-68
2023/01/15 11:22:15;;;;;;;0.90;0.80;;;5.40;99.90;;;;;;5042205;28;20839;-74
2023/01/15 11:24:49;;;;;;;0.50;0.40;;;5.40;99.90;;;;;;5035390;28;20496;-69
2023/01/15 11:27:19;;;;;;;0.50;0.40;;;5.30;99.90;;;;;;5014087;28;20768;-68
2023/01/15 11:29:50;;;;;;;0.67;0.67;;;5.20;99.90;;;;;;5011143;28;20881;-67
2023/01/15 11:32:28;;;;;;;0.70;0.50;;;5.20;99.90;;;;;;5010850;28;20444;-68
2023/01/15 11:34:56;;;;;;;0.60;0.60;;;5.10;99.90;;;;;;5010910;28;20450;-68
2023/01/15 11:37:22;;;;;;;0.93;0.43;;;5.00;99.90;;;;;;5012182;28;20429;-67
2023/01/15 11:40:04;;;;;;;1.93;0.70;;;4.90;99.90;;;;;;5008787;28;20444;-68
2023/01/15 11:50:55;;;;;;;0.40;0.40;;;4.70;99.90;;;;;;5007830;28;20840;-68
2023/01/15 11:53:31;;;;;;;0.40;0.40;;;4.70;99.90;;;;;;5011801;28;20959;-67
2023/01/15 11:56:05;;;;;;;0.50;0.50;;;4.70;99.90;;;;;;5008561;28;20600;-67
2023/01/15 11:58:40;;;;;;;0.60;0.60;;;4.70;99.90;;;;;;5008559;28;20452;-68
2023/01/15 12:01:06;;;;;;;0.40;0.40;;;4.60;99.90;;;;;;5017523;28;20854;-66
2023/01/15 12:03:34;;;;;;;0.83;0.60;;;4.60;99.90;;;;;;5024341;28;20437;-68
2023/01/15 12:06:05;;;;;;;1.57;0.77;;;4.60;99.90;;;;;;5014958;28;20282;-69
2023/01/15 12:08:54;;;;;;;0.70;0.60;;;4.70;99.90;;;;;;5018524;28;20438;-68
2023/01/15 12:11:49;;;;;;;1.93;0.70;;;4.70;99.90;;;;;;5003088;28;20437;-69
2023/01/15 12:14:28;;;;;;;0.70;0.50;;;4.70;99.90;;;;;;5011627;28;20437;-70
2023/01/15 12:17:19;;;;;;;3.07;0.87;;;4.70;99.90;;;;;;5014330;28;20465;-69
2023/01/15 12:20:06;;;;;;;0.87;0.73;;;4.60;99.90;;;;;;5011826;28;20441;-69
2023/01/15 12:22:38;;;;;;;0.60;0.57;;;4.60;99.90;;;;;;5007813;28;20512;-68
2023/01/15 12:25:17;;;;;;;0.60;0.57;;;4.60;99.90;;;;;;5013762;28;20508;-69
2023/01/15 12:28:02;;;;;;;0.73;0.70;;;4.60;99.90;;;;;;4993275;28;20515;-68
2023/01/15 12:30:51;;;;;;;1.90;0.60;;;4.60;99.90;;;;;;5009416;28;20509;-68
2023/01/15 12:33:27;;;;;;;0.60;0.57;;;4.60;99.90;;;;;;5010977;28;20442;-67
2023/01/15 12:36:02;;;;;;;1.30;0.80;;;4.70;99.90;;;;;;5011215;28;20457;-66
2023/01/15 12:38:36;;;;;;;0.73;0.70;;;4.70;99.90;;;;;;5009336;28;20469;-67
2023/01/15 12:41:10;;;;;;;1.77;1.27;;;4.70;99.90;;;;;;5013007;28;20465;-66
2023/01/15 12:46:28;;;;;;;3.17;0.80;;;4.80;99.90;;;;;;5020203;28;20484;-67
2023/01/15 12:49:02;;;;;;;1.97;0.50;;;4.70;99.90;;;;;;5008590;28;20476;-66
2023/01/15 12:51:50;;;;;;;0.83;0.60;;;4.80;99.90;;;;;;5019158;28;20444;-67
2023/01/15 12:54:25;;;;;;;3.73;0.80;;;4.80;99.90;;;;;;5004263;28;20437;-66
2023/01/15 12:57:15;;;;;;;1.73;1.27;;;4.80;99.90;;;;;;5016741;28;20443;-67
2023/01/15 12:59:53;;;;;;;1.57;0.70;;;4.80;99.90;;;;;;5007062;28;20468;-66
2023/01/15 13:02:41;;;;;;;0.80;0.73;;;4.80;99.90;;;;;;5018281;28;20457;-66
2023/01/15 13:05:19;;;;;;;0.97;0.87;;;4.80;99.90;;;;;;5012113;28;20485;-67
2023/01/15 13:07:57;;;;;;;1.03;0.70;;;4.80;99.90;;;;;;5013841;28;20958;-66
2023/01/15 13:10:29;;;;;;;2.77;1.67;;;4.80;99.90;;;;;;5006030;28;20477;-67
2023/01/15 13:13:17;;;;;;;1.70;0.60;;;4.80;99.90;;;;;;5010388;28;20440;-67
2023/01/15 13:16:05;;;;;;;1.23;0.73;;;4.80;99.90;;;;;;5000882;28;20478;-66
2023/01/15 13:18:43;;;;;;;1.43;0.60;;;4.90;99.90;;;;;;5004927;28;20442;-66
2023/01/15 13:21:14;;;;;;;0.63;0.63;;;5.00;99.90;;;;;;5010636;28;20528;-66
2023/01/15 13:23:55;;;;;;;3.70;1.03;;;5.10;99.90;;;;;;5009836;28;20477;-66
2023/01/15 13:26:44;;;;;;;3.50;0.90;;;5.10;99.90;;;;;;5007935;28;20452;-67
2023/01/15 13:29:32;;;;;;;0.90;0.80;;;5.10;99.90;;;;;;5009257;28;20556;-67
2023/01/15 13:32:21;;;;;;;3.03;1.10;;;5.30;99.90;;;;;;5006886;28;20446;-66
2023/01/15 13:35:20;;;;;;;2.40;0.70;;;5.30;99.90;;;;;;5009952;28;20477;-65
2023/01/15 13:37:50;;;;;;;0.93;0.60;;;5.20;99.90;;;;;;5000058;28;20442;-68
2023/01/15 13:40:31;;;;;;;2.83;1.40;;;5.20;99.90;;;;;;5013133;28;20460;-66
2023/01/15 13:42:57;;;;;;;0.90;0.70;;;5.20;99.90;;;;;;5013785;28;20452;-66
2023/01/15 13:45:41;;;;;;;1.87;0.90;;;5.20;99.90;;;;;;5018020;28;20470;-65
2023/01/15 13:48:27;;;;;;;2.87;1.10;;;5.30;99.90;;;;;;5018490;28;20453;-65
2023/01/15 13:50:58;;;;;;;1.60;1.10;;;5.30;99.90;;;;;;4997194;28;20489;-66
2023/01/15 13:53:47;;;;;;;1.53;0.80;;;5.30;99.90;;;;;;5014447;28;20452;-66
2023/01/15 13:56:23;;;;;;;4.83;1.87;;;5.40;99.90;;;;;;5002397;28;20520;-67
2023/01/15 13:58:58;;;;;;;1.43;0.93;;;5.60;99.90;;;;;;5013284;28;20445;-67
2023/01/15 14:01:28;;;;;;;2.93;0.70;;;5.70;99.90;;;;;;5012992;28;21051;-68
2023/01/15 14:04:09;;;;;;;1.30;1.00;;;5.80;99.90;;;;;;5015533;28;20524;-69